Time;durP1;ratioP1;P1;durP2;ratioP2;P2;SDS_P1;SDS_P2;PMS_P1;PMS_P2;Temp;Humidity;BMP_temperature;BMP_pressure;BME280_temperature;BME280_humidity;BME280_pressure;Samples;Min_cycle;Max_cycle;Signal;HPM_P1;HPM_P2
2022/07/04 00:02:19;;;;;;;5.10;4.80;;;20.60;17.00;;;;;;5055093;28;20221;-73
2022/07/04 00:04:45;;;;;;;4.03;3.77;;;20.70;17.00;;;;;;5054985;28;20178;-73
2022/07/04 00:07:11;;;;;;;3.93;3.57;;;20.40;18.10;;;;;;5054991;28;20482;-73
2022/07/04 00:09:36;;;;;;;4.17;3.87;;;20.30;18.30;;;;;;5054926;28;20186;-73
2022/07/04 00:12:02;;;;;;;5.70;3.77;;;20.40;18.10;;;;;;5054922;28;20182;-73
2022/07/04 00:14:27;;;;;;;4.20;3.80;;;20.40;18.20;;;;;;5054896;28;20187;-72
2022/07/04 00:16:53;;;;;;;4.33;4.00;;;20.40;18.40;;;;;;5054580;28;20248;-72
2022/07/04 00:19:18;;;;;;;3.87;3.67;;;20.40;18.30;;;;;;5053303;28;20174;-72
2022/07/04 00:21:45;;;;;;;4.07;3.77;;;20.30;18.20;;;;;;5053286;28;20703;-73
2022/07/04 00:24:11;;;;;;;4.33;4.03;;;20.30;18.30;;;;;;5054560;28;20194;-72
2022/07/04 00:26:36;;;;;;;4.10;3.73;;;20.30;18.60;;;;;;5054337;28;20435;-72
2022/07/04 00:29:02;;;;;;;4.07;3.77;;;20.30;18.50;;;;;;5054566;28;20626;-72
2022/07/04 00:31:28;;;;;;;3.57;3.27;;;20.30;18.70;;;;;;5054484;28;20178;-72
2022/07/04 00:33:53;;;;;;;3.50;3.30;;;20.20;18.80;;;;;;5053234;28;20243;-72
2022/07/04 00:36:19;;;;;;;4.33;3.93;;;20.10;19.40;;;;;;5052988;28;20303;-72
2022/07/04 00:38:45;;;;;;;3.90;3.60;;;20.00;19.40;;;;;;5053036;28;20186;-72
2022/07/04 00:41:10;;;;;;;4.10;3.77;;;20.00;19.50;;;;;;5054286;28;20182;-72
2022/07/04 00:43:36;;;;;;;3.70;3.40;;;20.00;19.40;;;;;;5054165;28;20177;-72
2022/07/04 00:46:07;;;;;;;3.00;2.80;;;19.90;19.70;;;;;;5054156;28;20277;-71
2022/07/04 00:48:33;;;;;;;2.87;2.67;;;19.90;19.70;;;;;;5054615;28;20591;-71
2022/07/04 00:50:59;;;;;;;3.13;2.80;;;19.90;19.80;;;;;;5054154;28;20429;-71
2022/07/04 00:53:25;;;;;;;2.80;2.60;;;;;;;;;;5054291;28;20228;-71
2022/07/04 00:55:52;;;;;;;3.00;2.80;;;19.90;19.30;;;;;;5052671;28;20436;-72
2022/07/04 00:58:22;;;;;;;3.47;3.17;;;19.90;20.00;;;;;;5053927;28;20456;-71
2022/07/04 01:00:48;;;;;;;3.20;2.90;;;;;;;;;;5053863;28;20491;-72
2022/07/04 01:03:14;;;;;;;3.80;3.50;;;;;;;;;;5054077;28;20772;-72
2022/07/04 01:05:41;;;;;;;4.30;3.03;;;;;;;;;;5052379;28;20440;-72
2022/07/04 01:08:07;;;;;;;3.50;3.10;;;;;;;;;;5053678;28;20417;-72
2022/07/04 01:10:33;;;;;;;3.20;3.00;;;;;;;;;;5053531;28;20416;-71
2022/07/04 01:12:59;;;;;;;4.27;3.23;;;;;;;;;;5053647;28;20413;-71
2022/07/04 01:15:25;;;;;;;4.67;3.80;;;;;;;;;;5053689;28;20487;-71
2022/07/04 01:17:51;;;;;;;3.50;3.27;;;;;;;;;;5053729;28;20453;-72
2022/07/04 01:20:17;;;;;;;3.97;3.60;;;20.10;19.00;;;;;;5054013;28;20445;-72
2022/07/04 01:22:43;;;;;;;3.30;3.10;;;20.10;19.30;;;;;;5053768;28;20904;-71
2022/07/04 01:25:09;;;;;;;4.03;3.23;;;20.10;19.20;;;;;;5053423;28;20448;-72
2022/07/04 01:27:34;;;;;;;3.60;3.30;;;20.10;19.10;;;;;;5053452;28;20174;-72
2022/07/04 01:30:00;;;;;;;3.60;3.30;;;20.00;19.00;;;;;;5053569;28;20531;-72
2022/07/04 01:32:26;;;;;;;3.77;3.37;;;20.00;19.40;;;;;;5053599;28;20257;-72
2022/07/04 01:34:52;;;;;;;3.83;3.23;;;19.90;19.80;;;;;;5053212;28;20425;-72
2022/07/04 01:37:18;;;;;;;4.03;3.47;;;19.90;19.80;;;;;;5053269;28;20207;-72
2022/07/04 01:39:43;;;;;;;3.17;2.97;;;19.80;19.90;;;;;;5053263;28;20520;-73
2022/07/04 01:42:09;;;;;;;3.00;2.80;;;19.80;19.80;;;;;;5051999;28;20218;-72
2022/07/04 01:44:35;;;;;;;5.97;3.43;;;19.70;19.90;;;;;;5053098;28;20177;-72
2022/07/04 01:47:01;;;;;;;5.00;2.90;;;19.80;20.80;;;;;;5055427;28;20203;-72
2022/07/04 01:49:27;;;;;;;3.53;3.20;;;19.70;20.00;;;;;;5053871;28;20258;-72
2022/07/04 01:51:52;;;;;;;4.53;3.77;;;19.70;20.40;;;;;;5054030;28;20441;-72
2022/07/04 01:54:18;;;;;;;5.90;3.20;;;19.70;20.30;;;;;;5053365;28;20185;-72
2022/07/04 01:56:45;;;;;;;3.10;2.90;;;19.70;20.60;;;;;;5052974;28;20202;-72
2022/07/04 01:59:11;;;;;;;3.63;3.33;;;19.70;20.70;;;;;;5052607;28;20440;-72
2022/07/04 02:01:37;;;;;;;5.10;3.23;;;19.80;20.50;;;;;;5052710;28;20528;-72
2022/07/04 02:04:05;;;;;;;3.50;3.20;;;19.80;20.30;;;;;;5052671;28;20467;-72
2022/07/04 02:06:32;;;;;;;3.40;3.10;;;19.80;20.80;;;;;;5052457;28;20502;-72
2022/07/04 02:09:15;;;;;;;5.70;2.77;;;19.90;20.30;;;;;;5052548;28;20421;-72
2022/07/04 02:14:32;;;;;;;3.40;2.80;;;19.70;20.70;;;;;;5052850;28;20396;-72
2022/07/04 02:16:57;;;;;;;3.43;3.13;;;19.70;20.70;;;;;;5052311;28;20888;-72
2022/07/04 02:19:23;;;;;;;3.33;2.97;;;19.60;20.70;;;;;;5052251;28;20446;-72
2022/07/04 02:21:49;;;;;;;7.10;3.37;;;19.60;20.90;;;;;;5051727;28;20249;-72
2022/07/04 02:24:14;;;;;;;3.90;2.93;;;19.50;21.10;;;;;;5052320;28;20223;-72
2022/07/04 02:26:40;;;;;;;3.27;2.97;;;19.60;20.70;;;;;;5050926;28;20268;-72
2022/07/04 02:29:05;;;;;;;3.50;2.70;;;19.60;20.70;;;;;;5052316;28;20182;-72
2022/07/04 02:31:31;;;;;;;2.90;2.70;;;19.70;20.70;;;;;;5050885;28;20559;-72
2022/07/04 02:33:56;;;;;;;3.07;2.87;;;19.60;20.70;;;;;;5052165;28;20470;-72
2022/07/04 02:36:22;;;;;;;2.77;2.57;;;19.70;20.40;;;;;;5051944;28;20292;-72
2022/07/04 02:38:47;;;;;;;3.13;2.93;;;19.70;20.40;;;;;;5050627;28;20187;-72
2022/07/04 02:41:13;;;;;;;7.93;3.93;;;19.70;20.70;;;;;;5052119;28;20182;-72
2022/07/04 02:43:38;;;;;;;3.57;2.97;;;19.70;20.80;;;;;;5052108;28;20178;-72
2022/07/04 02:46:04;;;;;;;3.37;3.13;;;19.70;20.70;;;;;;5052057;28;20221;-72
2022/07/04 02:48:30;;;;;;;4.73;3.33;;;19.70;20.70;;;;;;5051944;28;20693;-72
2022/07/04 02:50:55;;;;;;;3.60;3.07;;;19.70;20.70;;;;;;5051855;28;20236;-73
2022/07/04 02:53:21;;;;;;;3.60;3.30;;;19.70;20.70;;;;;;5052043;28;20178;-72
2022/07/04 02:55:46;;;;;;;2.93;2.73;;;19.70;20.70;;;;;;5051878;28;20206;-72
2022/07/04 02:58:12;;;;;;;3.43;3.13;;;19.70;20.50;;;;;;5050780;28;20202;-72
2022/07/04 03:00:37;;;;;;;2.77;2.57;;;19.70;20.70;;;;;;5051945;28;20549;-72
2022/07/04 03:03:03;;;;;;;4.57;2.90;;;19.70;20.70;;;;;;5052118;28;20661;-72
2022/07/04 03:05:31;;;;;;;3.87;3.57;;;19.70;20.70;;;;;;5050534;28;20218;-72
2022/07/04 03:07:57;;;;;;;3.03;2.77;;;19.70;20.70;;;;;;5051713;28;20641;-72
2022/07/04 03:10:23;;;;;;;3.37;3.07;;;19.70;20.70;;;;;;5051887;28;20421;-72
2022/07/04 03:12:48;;;;;;;3.90;3.60;;;19.60;20.80;;;;;;5052466;28;20424;-72
2022/07/04 03:15:14;;;;;;;3.20;2.90;;;19.70;20.70;;;;;;5052098;28;20205;-72
2022/07/04 03:17:39;;;;;;;3.17;2.87;;;19.40;21.40;;;;;;5051526;28;20202;-72
2022/07/04 03:20:05;;;;;;;3.40;3.10;;;19.50;21.30;;;;;;5051660;28;20186;-71
2022/07/04 03:22:31;;;;;;;5.57;3.60;;;19.50;21.20;;;;;;5050445;28;20592;-72
2022/07/04 03:24:57;;;;;;;3.10;2.90;;;19.50;20.60;;;;;;5051467;28;20479;-71
2022/07/04 03:27:22;;;;;;;4.10;3.77;;;19.60;20.30;;;;;;5052015;28;20652;-72
2022/07/04 03:29:48;;;;;;;3.60;3.40;;;19.40;20.60;;;;;;5051509;28;20263;-72
2022/07/04 03:32:13;;;;;;;4.13;3.73;;;19.30;20.00;;;;;;5051574;28;20635;-72
2022/07/04 03:34:39;;;;;;;3.70;3.40;;;19.20;20.10;;;;;;5054335;28;20432;-72
2022/07/04 03:37:04;;;;;;;3.67;3.43;;;19.20;20.40;;;;;;5055921;28;20198;-72
2022/07/04 03:39:30;;;;;;;5.73;3.20;;;19.20;20.40;;;;;;5055315;28;20193;-72
2022/07/04 03:41:55;;;;;;;4.30;3.90;;;19.20;20.00;;;;;;5055436;28;20232;-73
2022/07/04 03:44:21;;;;;;;3.37;3.17;;;19.30;19.70;;;;;;5055808;28;20257;-73
2022/07/04 03:46:47;;;;;;;4.50;3.67;;;19.20;20.40;;;;;;5055439;28;20210;-73
2022/07/04 03:49:12;;;;;;;3.70;3.37;;;19.10;20.30;;;;;;5054891;28;20646;-72
2022/07/04 03:51:38;;;;;;;3.60;3.30;;;19.10;20.30;;;;;;5055266;28;20221;-72
2022/07/04 03:54:03;;;;;;;3.70;3.40;;;19.20;20.40;;;;;;5055298;28;20189;-72
2022/07/04 03:56:29;;;;;;;4.10;3.87;;;19.40;19.80;;;;;;5055086;28;20236;-72
2022/07/04 03:58:54;;;;;;;4.57;4.20;;;19.50;18.40;;;;;;5053491;28;20635;-72
2022/07/04 04:01:20;;;;;;;6.03;5.10;;;19.50;18.70;;;;;;5055105;28;20269;-73
2022/07/04 04:06:31;;;;;;;4.00;3.57;;;19.50;18.50;;;;;;5055635;28;20221;-72
2022/07/04 04:08:56;;;;;;;4.30;3.90;;;19.50;18.90;;;;;;5053445;28;20963;-71
2022/07/04 04:11:25;;;;;;;5.03;4.73;;;19.60;18.80;;;;;;5054947;28;20638;-72
2022/07/04 04:13:53;;;;;;;4.87;4.47;;;19.60;18.50;;;;;;5055009;28;20198;-73
2022/07/04 04:16:19;;;;;;;4.50;4.10;;;19.60;18.70;;;;;;5054756;28;20994;-73
2022/07/04 04:18:44;;;;;;;4.50;4.20;;;19.70;18.40;;;;;;5054731;28;20424;-72
2022/07/04 04:21:10;;;;;;;5.23;4.73;;;19.70;18.30;;;;;;5053374;28;20228;-72
2022/07/04 04:23:35;;;;;;;4.17;3.87;;;19.70;18.20;;;;;;5054854;28;20257;-72
2022/07/04 04:26:01;;;;;;;4.53;4.23;;;19.60;18.50;;;;;;5054765;28;20198;-72
2022/07/04 04:28:26;;;;;;;5.20;4.83;;;19.60;18.50;;;;;;5054547;28;20197;-73
2022/07/04 04:30:52;;;;;;;4.33;4.03;;;19.70;18.30;;;;;;5055450;28;20174;-72
2022/07/04 04:33:17;;;;;;;5.03;4.67;;;19.50;17.90;;;;;;5054521;28;20244;-74
2022/07/04 04:35:43;;;;;;;5.50;5.10;;;19.60;18.10;;;;;;5054445;28;20207;-73
2022/07/04 04:38:09;;;;;;;5.00;4.70;;;19.80;17.80;;;;;;5054365;28;20623;-73
2022/07/04 04:40:34;;;;;;;5.10;4.80;;;19.90;17.80;;;;;;5054444;28;20189;-75
2022/07/04 04:43:00;;;;;;;5.37;5.07;;;20.00;21.10;;;;;;5054394;28;20178;-72
2022/07/04 04:45:25;;;;;;;6.80;5.70;;;19.90;17.10;;;;;;5053610;28;20198;-71
2022/07/04 04:47:53;;;;;;;5.60;5.30;;;20.00;16.50;;;;;;5054009;28;20347;-71
2022/07/04 04:50:19;;;;;;;5.20;4.90;;;19.80;16.40;;;;;;5053774;28;20273;-71
2022/07/04 04:52:44;;;;;;;5.60;5.30;;;20.00;16.50;;;;;;5054138;28;20416;-72
2022/07/04 04:55:10;;;;;;;5.40;5.10;;;;;;;;;;5053773;28;20457;-71
2022/07/04 04:57:36;;;;;;;5.70;5.30;;;19.50;16.80;;;;;;5052467;28;20232;-71
2022/07/04 05:00:06;;;;;;;5.97;5.60;;;19.60;17.00;;;;;;5052200;28;20939;-71
2022/07/04 05:02:32;;;;;;;5.10;4.80;;;19.70;16.50;;;;;;5054021;28;20257;-71
2022/07/04 05:04:58;;;;;;;5.03;4.63;;;19.20;17.60;;;;;;5053764;28;20511;-72
2022/07/04 05:07:24;;;;;;;5.93;5.63;;;19.30;18.10;;;;;;5053493;28;20490;-70
2022/07/04 05:09:50;;;;;;;5.57;5.27;;;19.50;18.10;;;;;;5053429;28;20274;-72
2022/07/04 05:12:16;;;;;;;5.80;5.40;;;19.70;17.10;;;;;;5052814;28;20190;-71
2022/07/04 05:14:42;;;;;;;6.63;6.30;;;19.80;16.40;;;;;;5053550;28;20189;-73
2022/07/04 05:17:07;;;;;;;6.57;6.27;;;19.90;16.20;;;;;;5052025;28;20472;-73
2022/07/04 05:19:33;;;;;;;6.77;6.27;;;19.70;16.30;;;;;;5053498;28;20421;-69
2022/07/04 05:21:58;;;;;;;6.30;5.90;;;20.00;16.50;;;;;;5053915;28;20175;-69
2022/07/04 05:24:24;;;;;;;14.53;6.70;;;20.20;15.80;;;;;;5053639;28;20671;-69
2022/07/04 05:26:50;;;;;;;7.90;7.40;;;20.30;15.90;;;;;;5053541;28;20190;-69
2022/07/04 05:29:16;;;;;;;6.63;6.23;;;20.00;16.00;;;;;;5053340;28;20174;-69
2022/07/04 05:31:42;;;;;;;7.73;7.13;;;19.70;16.30;;;;;;5053708;28;20564;-69
2022/07/04 05:34:07;;;;;;;7.40;6.80;;;20.10;15.90;;;;;;5053225;28;20422;-69
2022/07/04 05:36:33;;;;;;;7.70;7.10;;;20.40;15.50;;;;;;5053235;28;20202;-69
2022/07/04 05:38:58;;;;;;;8.67;8.17;;;20.30;15.70;;;;;;5052840;28;20194;-69
2022/07/04 05:41:24;;;;;;;9.00;8.20;;;20.60;14.70;;;;;;5052237;28;20183;-68
2022/07/04 05:43:50;;;;;;;9.77;9.17;;;20.80;14.20;;;;;;5053270;28;20181;-69
2022/07/04 05:46:16;;;;;;;9.80;9.30;;;21.30;13.40;;;;;;5052568;28;20429;-69
2022/07/04 05:48:41;;;;;;;11.20;10.50;;;21.70;12.20;;;;;;5053141;28;20269;-69
2022/07/04 05:51:07;;;;;;;11.00;10.43;;;21.70;11.90;;;;;;5052850;28;20496;-69
2022/07/04 05:53:33;;;;;;;11.50;10.90;;;22.10;11.30;;;;;;5053120;28;20202;-68
2022/07/04 05:55:58;;;;;;;12.20;11.60;;;23.20;11.60;;;;;;5052247;28;20202;-69
2022/07/04 05:58:24;;;;;;;12.50;12.00;;;23.80;8.80;;;;;;5052501;28;20677;-69
2022/07/04 06:00:50;;;;;;;11.47;10.87;;;24.30;8.90;;;;;;5052778;28;20178;-69
2022/07/04 06:03:15;;;;;;;12.73;12.03;;;24.60;7.30;;;;;;5052663;28;20640;-69
2022/07/04 06:05:41;;;;;;;11.90;11.40;;;24.50;6.50;;;;;;5052311;28;20260;-69
2022/07/04 06:08:06;;;;;;;12.93;12.27;;;24.20;6.60;;;;;;5051112;28;20264;-69
2022/07/04 06:10:33;;;;;;;13.40;12.70;;;24.40;6.80;;;;;;5052699;28;20210;-69
2022/07/04 06:12:59;;;;;;;13.97;13.37;;;24.70;6.30;;;;;;5052628;28;20186;-69
2022/07/04 06:15:24;;;;;;;12.40;11.70;;;24.90;6.30;;;;;;5052372;28;20483;-68
2022/07/04 06:17:50;;;;;;;13.27;12.60;;;24.90;6.40;;;;;;5052215;28;20832;-70
2022/07/04 06:20:15;;;;;;;11.40;10.90;;;24.70;6.40;;;;;;5052497;28;20224;-68
2022/07/04 06:22:42;;;;;;;11.13;10.63;;;23.90;7.10;;;;;;5052668;28;20193;-70
2022/07/04 06:25:15;;;;;;;11.40;10.90;;;22.80;9.10;;;;;;5052440;28;20584;-69
2022/07/04 06:27:42;;;;;;;10.83;10.43;;;22.50;9.30;;;;;;5052078;28;20428;-69
2022/07/04 06:30:08;;;;;;;11.40;10.90;;;22.60;9.30;;;;;;5051957;28;20420;-69
2022/07/04 06:32:48;;;;;;;11.60;11.03;;;22.90;9.50;;;;;;5050897;28;21140;-69
2022/07/04 06:38:02;;;;;;;11.50;10.93;;;22.90;9.60;;;;;;5042330;28;20994;-69
2022/07/04 06:40:28;;;;;;;10.33;9.93;;;23.10;9.10;;;;;;5051939;28;20460;-68
2022/07/04 06:42:53;;;;;;;10.53;10.03;;;22.50;9.30;;;;;;5052166;28;20182;-68
2022/07/04 06:45:19;;;;;;;10.70;10.00;;;21.70;11.70;;;;;;5052031;28;20677;-68
2022/07/04 06:47:45;;;;;;;8.93;8.43;;;21.40;11.80;;;;;;5051852;28;20186;-68
2022/07/04 06:50:11;;;;;;;9.20;8.80;;;21.20;12.90;;;;;;5051996;28;20265;-69
2022/07/04 06:52:36;;;;;;;9.50;9.10;;;21.80;11.90;;;;;;5052053;28;20273;-69
2022/07/04 06:55:02;;;;;;;8.73;8.30;;;21.40;11.70;;;;;;5051935;28;20519;-70
2022/07/04 06:57:27;;;;;;;10.10;9.40;;;21.70;12.30;;;;;;5052053;28;20218;-68
2022/07/04 06:59:53;;;;;;;10.03;9.33;;;21.60;12.30;;;;;;5051823;28;20217;-69
2022/07/04 07:02:18;;;;;;;9.83;9.23;;;21.90;11.80;;;;;;5051928;28;20174;-69
2022/07/04 07:04:44;;;;;;;9.50;8.90;;;22.00;11.70;;;;;;5052110;28;20182;-70
2022/07/04 07:07:10;;;;;;;9.50;9.00;;;22.00;11.70;;;;;;5050925;28;20213;-69
2022/07/04 07:09:35;;;;;;;8.60;8.17;;;21.90;11.90;;;;;;5051369;28;20257;-69
2022/07/04 07:12:02;;;;;;;7.97;7.60;;;21.30;13.00;;;;;;5051326;28;20178;-68
2022/07/04 07:14:27;;;;;;;11.17;7.63;;;20.90;14.00;;;;;;5049748;28;20540;-68
2022/07/04 07:16:53;;;;;;;8.70;7.93;;;20.90;14.20;;;;;;5049855;28;20559;-68
2022/07/04 07:19:18;;;;;;;7.97;7.43;;;21.20;13.50;;;;;;5050822;28;20715;-68
2022/07/04 07:21:44;;;;;;;7.50;7.00;;;20.80;14.00;;;;;;5051136;28;20171;-68
2022/07/04 07:24:09;;;;;;;8.57;8.07;;;20.60;15.00;;;;;;5050112;28;20174;-69
2022/07/04 07:26:35;;;;;;;7.97;7.67;;;21.10;14.00;;;;;;5051443;28;20553;-69
2022/07/04 07:29:00;;;;;;;9.13;8.63;;;21.20;13.90;;;;;;5051338;28;20240;-69
2022/07/04 07:31:26;;;;;;;9.23;8.60;;;21.50;13.10;;;;;;5051498;28;20174;-68
2022/07/04 07:33:52;;;;;;;8.87;8.37;;;21.20;13.40;;;;;;5051633;28;20167;-68
2022/07/04 07:36:17;;;;;;;8.30;7.90;;;21.50;13.50;;;;;;5051427;28;20253;-69
2022/07/04 07:38:43;;;;;;;8.73;8.03;;;21.70;13.30;;;;;;5049328;28;20292;-68
2022/07/04 07:41:10;;;;;;;7.47;7.07;;;21.30;13.70;;;;;;5041251;28;20248;-70
2022/07/04 07:43:36;;;;;;;8.13;7.73;;;20.80;15.60;;;;;;5051465;28;20333;-69
2022/07/04 07:46:04;;;;;;;8.17;7.63;;;21.30;15.60;;;;;;5051545;28;20547;-68
2022/07/04 07:48:30;;;;;;;13.50;11.13;;;21.70;14.40;;;;;;5050919;28;20409;-69
2022/07/04 07:50:55;;;;;;;8.30;7.83;;;22.10;14.10;;;;;;5051201;28;20420;-68
2022/07/04 07:53:21;;;;;;;8.70;8.20;;;21.90;14.00;;;;;;5051165;28;20183;-68
2022/07/04 07:55:46;;;;;;;9.30;8.80;;;22.20;13.60;;;;;;5051271;28;20344;-68
2022/07/04 07:58:12;;;;;;;27.13;12.10;;;22.50;13.60;;;;;;5050970;28;20240;-68
2022/07/04 08:00:37;;;;;;;11.07;10.37;;;23.00;12.50;;;;;;5050927;28;20261;-68
2022/07/04 08:05:48;;;;;;;12.00;10.93;;;23.30;11.20;;;;;;5051343;28;20583;-69
2022/07/04 08:08:13;;;;;;;8.83;8.30;;;22.70;12.20;;;;;;5049818;28;20425;-68
2022/07/04 08:10:39;;;;;;;8.50;8.00;;;22.00;13.40;;;;;;5051353;28;20328;-69
2022/07/04 08:13:05;;;;;;;8.20;7.80;;;21.70;14.30;;;;;;5051393;28;20248;-68
2022/07/04 08:15:31;;;;;;;8.83;8.23;;;21.80;14.60;;;;;;5051278;28;20199;-68
2022/07/04 08:17:56;;;;;;;8.47;7.97;;;21.90;13.80;;;;;;5050914;28;20460;-68
2022/07/04 08:20:22;;;;;;;24.27;15.03;;;22.10;13.50;;;;;;5053644;28;20417;-68
2022/07/04 08:22:47;;;;;;;8.70;8.30;;;22.40;13.70;;;;;;5054748;28;20170;-68
2022/07/04 08:25:14;;;;;;;9.73;9.30;;;22.60;12.80;;;;;;5054492;28;20234;-69
2022/07/04 08:27:40;;;;;;;9.10;8.70;;;23.10;12.10;;;;;;5054464;28;20603;-70
2022/07/04 08:30:06;;;;;;;9.90;9.40;;;23.40;12.00;;;;;;5054150;28;20679;-69
2022/07/04 08:32:32;;;;;;;12.47;11.70;;;23.80;11.50;;;;;;5054678;28;20593;-69
2022/07/04 08:34:57;;;;;;;11.40;10.43;;;24.40;10.60;;;;;;5054788;28;20680;-69
2022/07/04 08:37:23;;;;;;;10.90;10.40;;;24.30;11.10;;;;;;5053703;28;20210;-69
2022/07/04 08:39:49;;;;;;;10.40;9.60;;;23.80;10.20;;;;;;5054030;28;20174;-69
2022/07/04 08:42:20;;;;;;;10.87;10.37;;;23.20;10.90;;;;;;5053104;28;20524;-69
2022/07/04 08:44:55;;;;;;;11.07;10.47;;;23.80;10.70;;;;;;5054170;28;20174;-69
2022/07/04 08:47:22;;;;;;;12.10;11.50;;;24.50;10.10;;;;;;5054150;28;20576;-69
2022/07/04 08:50:16;;;;;;;12.30;11.27;;;25.10;9.00;;;;;;5032759;28;20647;-70
2022/07/04 08:52:46;;;;;;;12.13;11.53;;;25.00;8.30;;;;;;5034345;28;20882;-70
2022/07/04 09:00:42;;;;;;;12.23;11.50;;;24.60;8.20;;;;;;5054090;28;20954;-70
2022/07/04 09:03:08;;;;;;;11.60;11.13;;;24.70;8.60;;;;;;5054039;28;20417;-69
2022/07/04 09:05:35;;;;;;;12.97;12.27;;;25.10;7.70;;;;;;5053619;28;20221;-69
2022/07/04 09:08:02;;;;;;;11.90;11.40;;;25.00;7.80;;;;;;5053418;28;20471;-69
2022/07/04 09:10:29;;;;;;;12.30;11.40;;;25.30;7.70;;;;;;5053671;28;20427;-69
2022/07/04 09:12:54;;;;;;;11.60;11.10;;;24.60;8.00;;;;;;5054421;28;20421;-73
2022/07/04 09:15:20;;;;;;;11.53;11.10;;;23.90;9.10;;;;;;5054155;28;20433;-72
2022/07/04 09:17:46;;;;;;;12.23;11.63;;;23.90;9.00;;;;;;5053968;28;20283;-72
2022/07/04 09:20:13;;;;;;;12.80;12.17;;;24.00;10.00;;;;;;5053701;28;20167;-72
2022/07/04 09:22:38;;;;;;;13.90;12.77;;;24.60;8.80;;;;;;5054154;28;20405;-73
2022/07/04 09:25:05;;;;;;;12.00;11.50;;;24.90;7.50;;;;;;5053748;28;20441;-73
2022/07/04 09:27:35;;;;;;;13.13;12.43;;;25.10;7.80;;;;;;5053948;28;20183;-72
2022/07/04 09:30:03;;;;;;;12.03;11.53;;;25.30;6.50;;;;;;5053351;28;20512;-72
2022/07/04 09:32:36;;;;;;;13.50;12.70;;;25.70;6.70;;;;;;5086158;28;20425;-74
2022/07/04 09:35:03;;;;;;;12.37;11.87;;;25.70;6.20;;;;;;5053713;28;20430;-72
2022/07/04 09:38:02;;;;;;;13.10;12.40;;;26.40;5.80;;;;;;5053592;28;20553;-73
2022/07/04 09:40:33;;;;;;;11.77;11.27;;;25.10;7.80;;;;;;5045606;28;20421;-69
2022/07/04 09:43:10;;;;;;;12.43;11.93;;;25.00;8.00;;;;;;5053391;28;20408;-69
2022/07/04 09:45:52;;;;;;;13.50;12.60;;;25.70;7.20;;;;;;5053208;28;21143;-69
2022/07/04 09:48:17;;;;;;;14.10;13.27;;;26.60;6.00;;;;;;5052987;28;20412;-69
2022/07/04 09:50:43;;;;;;;13.40;12.80;;;26.70;4.80;;;;;;5053326;28;20595;-69
2022/07/04 09:53:09;;;;;;;12.47;11.90;;;26.60;4.70;;;;;;5053011;28;20201;-69
2022/07/04 09:55:39;;;;;;;11.80;11.30;;;25.40;5.00;;;;;;5052766;28;20195;-69
2022/07/04 09:58:07;;;;;;;12.90;12.30;;;25.20;6.50;;;;;;5052578;28;20572;-69
2022/07/04 10:00:36;;;;;;;12.77;12.17;;;25.90;5.60;;;;;;5052756;28;20417;-69
2022/07/04 10:03:18;;;;;;;12.20;11.60;;;26.20;5.00;;;;;;5052895;28;20413;-69
2022/07/04 10:05:46;;;;;;;11.90;11.40;;;25.70;4.80;;;;;;5080319;22;20479;-68
2022/07/04 10:08:12;;;;;;;12.63;12.13;;;25.70;5.80;;;;;;5072518;28;20405;-69
2022/07/04 10:10:39;;;;;;;13.17;12.50;;;26.20;5.20;;;;;;5071258;28;20431;-69
2022/07/04 10:13:11;;;;;;;12.90;11.87;;;26.20;4.30;;;;;;5072627;28;20173;-69
2022/07/04 10:15:40;;;;;;;12.40;11.90;;;26.30;5.50;;;;;;5072563;28;20958;-69
2022/07/04 10:18:07;;;;;;;12.63;12.13;;;26.80;4.70;;;;;;5072194;28;21013;-68
2022/07/04 10:20:34;;;;;;;12.80;12.30;;;26.40;4.90;;;;;;5072466;28;20423;-68
2022/07/04 10:23:00;;;;;;;13.00;12.40;;;25.90;5.00;;;;;;5071386;28;20508;-68
2022/07/04 10:25:26;;;;;;;12.47;11.97;;;26.10;4.90;;;;;;5058898;28;20456;-69
2022/07/04 10:27:52;;;;;;;13.30;12.70;;;26.20;5.60;;;;;;5051568;28;20409;-72
2022/07/04 10:30:23;;;;;;;9.50;9.00;;;25.70;5.20;;;;;;5053578;28;20407;-70
2022/07/04 10:32:50;;;;;;;12.13;11.60;;;24.00;8.90;;;;;;5051302;28;20413;-70
2022/07/04 10:35:16;;;;;;;12.07;11.57;;;23.80;10.20;;;;;;5050243;28;20428;-70
2022/07/04 10:38:02;;;;;;;11.40;10.90;;;24.40;9.50;;;;;;5050374;28;20978;-69
2022/07/04 10:41:04;;;;;;;11.47;10.97;;;23.80;10.20;;;;;;5049258;28;20175;-67
2022/07/04 10:43:30;;;;;;;28.03;11.90;;;24.20;9.90;;;;;;5051390;28;20783;-67
2022/07/04 10:45:56;;;;;;;10.97;10.50;;;24.40;9.80;;;;;;5051970;28;20511;-67
2022/07/04 10:48:23;;;;;;;11.40;10.90;;;24.40;9.40;;;;;;5051739;28;20178;-67
2022/07/04 10:51:33;;;;;;;12.27;11.63;;;24.60;8.60;;;;;;5051999;28;20413;-66
2022/07/04 10:54:02;;;;;;;11.20;10.70;;;24.00;7.40;;;;;;5019533;28;20417;-67
2022/07/04 10:56:27;;;;;;;11.77;11.27;;;24.00;8.60;;;;;;5051894;28;20955;-67
2022/07/04 10:58:55;;;;;;;12.03;11.50;;;24.40;8.50;;;;;;5051555;28;20453;-67
2022/07/04 11:01:21;;;;;;;11.90;11.30;;;24.80;7.70;;;;;;5052464;28;20185;-66
2022/07/04 11:03:48;;;;;;;12.40;11.47;;;25.00;7.10;;;;;;5052152;28;20409;-67
2022/07/04 11:06:32;;;;;;;11.07;10.57;;;24.80;7.80;;;;;;5051701;28;20210;-68
2022/07/04 11:09:16;;;;;;;11.73;11.23;;;24.90;8.00;;;;;;5051469;28;20470;-67
2022/07/04 11:11:59;;;;;;;11.93;11.43;;;24.70;6.20;;;;;;5051614;28;20440;-69
2022/07/04 11:14:36;;;;;;;12.13;11.43;;;24.20;7.70;;;;;;5052227;28;20452;-67
2022/07/04 11:17:13;;;;;;;12.93;12.13;;;24.60;7.10;;;;;;5051677;28;20463;-68
2022/07/04 11:19:40;;;;;;;12.37;11.77;;;24.60;6.10;;;;;;5051604;28;20408;-67
2022/07/04 11:22:08;;;;;;;12.20;11.70;;;24.50;7.80;;;;;;5051885;28;20405;-67
2022/07/04 11:24:34;;;;;;;11.43;10.93;;;24.30;7.40;;;;;;5052062;28;20401;-70
2022/07/04 11:27:00;;;;;;;12.07;11.57;;;24.20;7.80;;;;;;5051572;28;20845;-70
2022/07/04 11:29:26;;;;;;;11.13;10.73;;;24.30;7.30;;;;;;5051641;28;20182;-70
2022/07/04 11:31:52;;;;;;;11.80;11.20;;;24.30;7.50;;;;;;5052069;28;20409;-69
2022/07/04 11:34:19;;;;;;;12.17;11.57;;;24.40;7.20;;;;;;5051682;28;20205;-70
2022/07/04 11:36:47;;;;;;;12.27;11.70;;;24.60;6.10;;;;;;5051580;28;20443;-70
2022/07/04 11:39:18;;;;;;;12.50;11.80;;;24.50;7.00;;;;;;5051688;28;20413;-69
2022/07/04 11:47:24;;;;;;;12.00;11.30;;;24.80;6.20;;;;;;5052502;28;20475;-69
2022/07/04 11:49:55;;;;;;;12.40;11.70;;;24.90;6.30;;;;;;5051892;28;20496;-68
2022/07/04 11:52:29;;;;;;;13.20;12.30;;;25.00;6.40;;;;;;5051329;28;20424;-68
2022/07/04 11:54:55;;;;;;;13.10;12.23;;;25.00;6.40;;;;;;5053868;28;20411;-69
2022/07/04 11:57:26;;;;;;;11.27;10.87;;;25.00;7.00;;;;;;5056192;28;20457;-69
2022/07/04 11:59:55;;;;;;;12.23;11.57;;;24.90;7.00;;;;;;5055601;28;20178;-69
2022/07/04 12:02:21;;;;;;;12.43;11.50;;;24.90;7.40;;;;;;5055626;28;20442;-69
2022/07/04 12:04:46;;;;;;;12.63;12.03;;;25.20;6.40;;;;;;5055429;28;20413;-69
2022/07/04 12:07:14;;;;;;;12.37;11.77;;;25.30;6.50;;;;;;5055422;28;20586;-69
2022/07/04 12:09:40;;;;;;;13.03;12.43;;;25.30;6.70;;;;;;5055235;28;20174;-69
2022/07/04 12:12:07;;;;;;;11.90;11.40;;;25.30;6.10;;;;;;5055739;28;20417;-69
2022/07/04 12:14:32;;;;;;;11.60;11.10;;;25.10;6.40;;;;;;5056233;28;20782;-69
2022/07/04 12:17:12;;;;;;;12.00;11.50;;;25.20;6.70;;;;;;5055391;28;20471;-69
2022/07/04 12:19:38;;;;;;;11.70;11.10;;;25.30;6.00;;;;;;5055957;28;20269;-69
2022/07/04 12:22:03;;;;;;;11.13;10.60;;;25.40;6.60;;;;;;5057050;28;20420;-69
2022/07/04 12:24:42;;;;;;;11.27;10.67;;;25.30;6.50;;;;;;5055626;28;20175;-69
2022/07/04 12:27:17;;;;;;;12.60;12.00;;;25.20;6.50;;;;;;5053690;28;20297;-69
2022/07/04 12:29:49;;;;;;;11.63;11.13;;;25.30;6.50;;;;;;5054485;28;20412;-70
2022/07/04 12:32:16;;;;;;;11.77;11.17;;;25.50;6.30;;;;;;5055532;28;20409;-69
2022/07/04 12:34:42;;;;;;;11.53;11.03;;;25.30;5.90;;;;;;5054882;28;20428;-69
2022/07/04 12:37:09;;;;;;;13.20;12.20;;;25.50;5.60;;;;;;5055078;28;20456;-68
2022/07/04 12:39:37;;;;;;;12.20;11.50;;;25.60;5.20;;;;;;5054489;28;20499;-69
2022/07/04 12:42:08;;;;;;;11.53;11.03;;;25.70;5.30;;;;;;5053436;28;20428;-68
2022/07/04 12:44:34;;;;;;;12.17;11.50;;;25.60;5.50;;;;;;5054720;28;20888;-68
2022/07/04 12:47:00;;;;;;;12.77;12.07;;;25.40;5.60;;;;;;5055540;28;20520;-69
2022/07/04 12:49:26;;;;;;;12.50;12.00;;;25.60;5.90;;;;;;5054695;28;20262;-68
2022/07/04 12:52:02;;;;;;;12.40;11.70;;;25.80;5.50;;;;;;5054297;28;20851;-67
2022/07/04 12:54:28;;;;;;;12.10;11.60;;;25.60;5.00;;;;;;5054202;28;20170;-68
2022/07/04 12:57:07;;;;;;;11.80;11.10;;;25.60;5.10;;;;;;5052705;28;20491;-68
2022/07/04 12:59:33;;;;;;;12.37;11.87;;;25.80;5.20;;;;;;5053833;28;20163;-68
2022/07/04 13:01:59;;;;;;;11.87;11.47;;;25.80;4.10;;;;;;5054378;28;20769;-67
2022/07/04 13:04:25;;;;;;;11.60;11.10;;;25.80;4.70;;;;;;5054235;28;20503;-67
2022/07/04 13:06:51;;;;;;;12.10;11.50;;;25.90;4.40;;;;;;5053550;28;20246;-67
2022/07/04 13:09:16;;;;;;;11.40;10.80;;;25.60;4.90;;;;;;5053708;28;20185;-68